Time;durP1;ratioP1;P1;durP2;ratioP2;P2;SDS_P1;SDS_P2;PMS_P1;PMS_P2;Temp;Humidity;BMP_temperature;BMP_pressure;BME280_temperature;BME280_humidity;BME280_pressure;Samples;Min_cycle;Max_cycle;Signal;HPM_P1;HPM_P2
2022/11/19 00:00:15;;;;;;;1.00;1.00;;;2.70;99.90;;;;;;6360554;28;20272;-67
2022/11/19 00:03:22;;;;;;;1.00;1.00;;;2.70;99.90;;;;;;6380712;28;20569;-67
2022/11/19 00:06:28;;;;;;;0.90;0.90;;;2.60;99.90;;;;;;6385793;28;20270;-67
2022/11/19 00:09:33;;;;;;;1.00;1.00;;;2.60;99.90;;;;;;6384398;28;20466;-67
2022/11/19 00:12:56;;;;;;;0.90;0.90;;;2.50;99.90;;;;;;6379291;27;20291;-67
2022/11/19 00:16:03;;;;;;;0.90;0.90;;;2.50;99.90;;;;;;6385504;28;20575;-67
2022/11/19 00:19:09;;;;;;;0.80;0.80;;;2.50;99.90;;;;;;6384851;27;20295;-67
2022/11/19 00:22:16;;;;;;;0.97;0.97;;;2.50;99.90;;;;;;6385203;27;20954;-67
2022/11/19 00:25:22;;;;;;;0.90;0.90;;;2.50;99.90;;;;;;6386944;27;20272;-67
2022/11/19 00:28:26;;;;;;;0.90;0.90;;;2.50;99.90;;;;;;6389859;27;20485;-67
2022/11/19 00:31:32;;;;;;;1.13;1.00;;;2.50;99.90;;;;;;6390014;27;20267;-67
2022/11/19 00:34:37;;;;;;;0.90;0.90;;;2.50;99.90;;;;;;6389252;27;20310;-68
2022/11/19 00:37:43;;;;;;;0.80;0.80;;;2.60;99.90;;;;;;6389554;27;20306;-67
2022/11/19 00:40:47;;;;;;;1.10;1.10;;;2.60;99.90;;;;;;6390102;27;20268;-67
2022/11/19 00:43:53;;;;;;;1.50;0.87;;;2.50;99.90;;;;;;6389393;27;20446;-67
2022/11/19 00:46:57;;;;;;;1.00;1.00;;;2.50;99.90;;;;;;6389707;27;20266;-69
2022/11/19 00:50:03;;;;;;;1.00;1.00;;;2.50;99.90;;;;;;6389816;27;20264;-69
2022/11/19 00:53:09;;;;;;;1.27;1.27;;;2.40;99.90;;;;;;6388850;27;20292;-68
2022/11/19 00:56:17;;;;;;;0.90;0.90;;;2.40;99.90;;;;;;6389919;27;20268;-68
2022/11/19 00:59:22;;;;;;;0.97;0.97;;;2.40;99.90;;;;;;6389103;27;20317;-68
2022/11/19 01:02:26;;;;;;;1.00;1.00;;;2.40;99.90;;;;;;6388969;27;20291;-67
2022/11/19 01:05:31;;;;;;;1.00;1.00;;;2.50;99.90;;;;;;6388840;27;20265;-67
2022/11/19 01:08:38;;;;;;;1.20;1.20;;;2.50;99.90;;;;;;6388497;27;20299;-67
2022/11/19 01:11:43;;;;;;;1.00;1.00;;;2.40;99.90;;;;;;6389330;27;20257;-67
2022/11/19 01:14:48;;;;;;;1.00;1.00;;;2.40;99.90;;;;;;6388596;27;20339;-67
2022/11/19 01:17:52;;;;;;;1.10;1.10;;;2.30;99.90;;;;;;6388005;27;20596;-67
2022/11/19 01:20:57;;;;;;;0.90;0.90;;;2.30;99.90;;;;;;6388683;27;20590;-67
2022/11/19 01:24:05;;;;;;;1.60;0.97;;;2.30;99.90;;;;;;6388130;27;20291;-67
2022/11/19 01:27:11;;;;;;;0.87;0.87;;;2.40;99.90;;;;;;6388352;27;20295;-67
2022/11/19 01:30:16;;;;;;;0.93;0.93;;;2.40;99.90;;;;;;6388660;27;20268;-67
2022/11/19 01:33:21;;;;;;;1.00;1.00;;;2.30;99.90;;;;;;6387942;27;20295;-67
2022/11/19 01:36:28;;;;;;;1.00;1.00;;;2.40;99.90;;;;;;6388103;27;20262;-67
2022/11/19 01:39:34;;;;;;;1.60;1.00;;;2.40;99.90;;;;;;6387845;27;20298;-68
2022/11/19 01:42:52;;;;;;;3.60;1.20;;;2.40;99.90;;;;;;6388052;27;20287;-67
2022/11/19 01:45:57;;;;;;;0.90;0.87;;;2.30;99.90;;;;;;6388789;27;20270;-67
2022/11/19 01:49:07;;;;;;;0.97;0.97;;;2.30;99.90;;;;;;6387958;27;20299;-67
2022/11/19 01:52:13;;;;;;;1.00;1.00;;;2.30;99.90;;;;;;6388119;27;20271;-67
2022/11/19 01:55:19;;;;;;;1.03;1.03;;;2.40;99.90;;;;;;6388066;27;20266;-67
2022/11/19 01:58:25;;;;;;;1.10;1.10;;;2.40;99.90;;;;;;6387285;27;20600;-66
2022/11/19 02:01:31;;;;;;;1.27;1.00;;;2.40;99.90;;;;;;6387677;27;20290;-67
2022/11/19 02:04:36;;;;;;;1.00;1.00;;;2.40;99.90;;;;;;6387259;27;20475;-67
2022/11/19 02:07:45;;;;;;;1.00;1.00;;;2.40;99.90;;;;;;6387541;27;20298;-67
2022/11/19 02:10:59;;;;;;;1.10;1.00;;;2.30;99.90;;;;;;6379628;27;20261;-68
2022/11/19 02:14:29;;;;;;;1.20;1.10;;;2.30;99.90;;;;;;6387507;27;20293;-68
2022/11/19 02:17:51;;;;;;;1.07;1.07;;;2.30;99.90;;;;;;6387139;27;20294;-68
2022/11/19 02:21:04;;;;;;;1.13;0.90;;;2.40;99.90;;;;;;6387401;27;20326;-68
2022/11/19 02:24:41;;;;;;;0.90;0.90;;;2.30;99.90;;;;;;6386957;27;20296;-67
2022/11/19 02:28:22;;;;;;;1.07;1.07;;;2.40;99.90;;;;;;6386532;27;20294;-68
2022/11/19 02:31:34;;;;;;;1.60;1.10;;;2.30;99.90;;;;;;6387541;27;20452;-68
2022/11/19 02:34:45;;;;;;;0.90;0.90;;;2.40;99.90;;;;;;6387082;27;20303;-68
2022/11/19 02:37:56;;;;;;;0.87;0.87;;;2.30;99.90;;;;;;6386787;27;20297;-68
2022/11/19 02:41:32;;;;;;;1.10;1.10;;;2.30;99.90;;;;;;6386437;27;20266;-68
2022/11/19 02:48:04;;;;;;;1.90;1.10;;;2.20;99.90;;;;;;6385593;27;20293;-68
2022/11/19 02:51:11;;;;;;;1.03;1.03;;;2.20;99.90;;;;;;6387036;27;20272;-67
2022/11/19 02:54:16;;;;;;;1.20;1.20;;;2.20;99.90;;;;;;6385915;27;20291;-66
2022/11/19 02:57:21;;;;;;;1.00;1.00;;;2.10;99.90;;;;;;6386026;27;20587;-67
2022/11/19 03:07:19;;;;;;;0.80;0.80;;;2.10;99.90;;;;;;6366401;27;20563;-68
2022/11/19 03:10:27;;;;;;;1.47;1.10;;;2.10;99.90;;;;;;6386519;27;20259;-67
2022/11/19 03:17:10;;;;;;;0.80;0.80;;;2.10;99.90;;;;;;6385702;27;20266;-68
2022/11/19 03:20:21;;;;;;;1.10;1.10;;;2.10;99.90;;;;;;6386330;27;20458;-68
2022/11/19 03:23:32;;;;;;;1.10;1.10;;;2.10;99.90;;;;;;6385565;28;20448;-67
2022/11/19 03:26:40;;;;;;;1.07;1.07;;;2.10;99.90;;;;;;6385978;28;20268;-68
2022/11/19 03:29:49;;;;;;;1.00;1.00;;;2.00;99.90;;;;;;6385836;28;20319;-67
2022/11/19 03:32:58;;;;;;;1.87;1.10;;;2.00;99.90;;;;;;6385110;28;20309;-67
2022/11/19 03:36:11;;;;;;;1.07;1.07;;;2.00;99.90;;;;;;6386260;28;20264;-67
2022/11/19 03:39:18;;;;;;;1.00;1.00;;;2.00;99.90;;;;;;6385725;28;20296;-67
2022/11/19 03:42:26;;;;;;;1.03;1.03;;;2.00;99.90;;;;;;6385265;28;20452;-67
2022/11/19 03:45:37;;;;;;;0.90;0.90;;;2.10;99.90;;;;;;6386008;28;20405;-68
2022/11/19 03:48:46;;;;;;;1.00;1.00;;;2.00;99.90;;;;;;6385627;28;20303;-67
2022/11/19 03:51:56;;;;;;;1.13;1.00;;;2.00;99.90;;;;;;6385822;28;20269;-67
2022/11/19 03:55:01;;;;;;;1.03;1.03;;;1.90;99.90;;;;;;6385279;28;20534;-67
2022/11/19 03:58:07;;;;;;;2.10;1.13;;;2.00;99.90;;;;;;6385284;28;20293;-67
2022/11/19 04:01:13;;;;;;;1.03;1.03;;;1.90;99.90;;;;;;6386283;27;20293;-67
2022/11/19 04:04:36;;;;;;;1.10;1.10;;;2.00;99.90;;;;;;6381833;27;20288;-67
2022/11/19 04:07:42;;;;;;;1.00;1.00;;;2.10;99.90;;;;;;6387601;27;20266;-67
2022/11/19 04:10:47;;;;;;;1.00;1.00;;;2.00;99.90;;;;;;6390437;27;20469;-67
2022/11/19 04:13:52;;;;;;;1.20;1.20;;;2.00;99.90;;;;;;6390247;27;20288;-67
2022/11/19 04:16:57;;;;;;;1.00;0.90;;;2.00;99.90;;;;;;6390491;27;20260;-67
2022/11/19 04:20:02;;;;;;;2.40;1.20;;;2.00;99.90;;;;;;6385153;27;20296;-67
2022/11/19 04:23:08;;;;;;;1.00;1.00;;;2.00;99.90;;;;;;6390103;27;20265;-67
2022/11/19 04:26:13;;;;;;;1.03;1.00;;;2.00;99.90;;;;;;6389444;27;20570;-67
2022/11/19 04:29:18;;;;;;;1.20;1.20;;;2.00;99.90;;;;;;6389121;27;20616;-67
2022/11/19 04:32:23;;;;;;;1.13;1.13;;;2.00;99.90;;;;;;6390494;27;20265;-67
2022/11/19 04:35:27;;;;;;;1.00;1.00;;;2.00;99.90;;;;;;6389718;27;20294;-67
2022/11/19 04:38:34;;;;;;;1.13;1.13;;;2.00;99.90;;;;;;6389375;27;20292;-67
2022/11/19 04:41:40;;;;;;;1.10;1.10;;;2.00;99.90;;;;;;6389459;27;20294;-67
2022/11/19 04:44:45;;;;;;;0.97;0.97;;;2.10;99.90;;;;;;6371207;27;20314;-67
2022/11/19 04:47:49;;;;;;;1.03;1.03;;;2.10;99.90;;;;;;6389671;27;20267;-68
2022/11/19 04:50:54;;;;;;;0.97;0.97;;;2.10;99.90;;;;;;6384561;27;20300;-68
2022/11/19 04:54:00;;;;;;;1.00;1.00;;;2.10;99.90;;;;;;6386184;27;20300;-68
2022/11/19 04:57:05;;;;;;;0.90;0.90;;;2.10;99.90;;;;;;6389598;27;20268;-68
2022/11/19 05:00:12;;;;;;;1.03;0.90;;;2.10;99.90;;;;;;6389096;27;20299;-68
2022/11/19 05:03:17;;;;;;;1.00;1.00;;;2.10;99.90;;;;;;6388834;27;20581;-68
2022/11/19 05:06:22;;;;;;;1.10;1.10;;;2.10;99.90;;;;;;6389673;27;20263;-68
2022/11/19 05:09:28;;;;;;;1.10;1.10;;;2.20;99.90;;;;;;6388455;27;20460;-68
2022/11/19 05:12:33;;;;;;;1.40;1.00;;;2.10;99.90;;;;;;6387569;27;20257;-68
2022/11/19 05:15:38;;;;;;;1.20;1.20;;;2.10;99.90;;;;;;6388938;27;20301;-68
2022/11/19 05:18:43;;;;;;;2.83;1.03;;;2.10;99.90;;;;;;6388293;27;20288;-68
2022/11/19 05:21:47;;;;;;;1.10;1.10;;;2.10;99.90;;;;;;6389130;27;20288;-68
2022/11/19 05:24:53;;;;;;;1.10;1.00;;;2.10;99.90;;;;;;6388759;27;20288;-68
2022/11/19 05:27:58;;;;;;;1.10;1.10;;;2.10;99.90;;;;;;6389282;27;20265;-68
2022/11/19 05:31:04;;;;;;;1.27;1.27;;;2.10;99.90;;;;;;6387901;27;20298;-68
2022/11/19 05:34:08;;;;;;;1.43;1.43;;;2.10;99.90;;;;;;6388204;27;20301;-68
2022/11/19 05:37:13;;;;;;;1.50;1.50;;;2.20;99.90;;;;;;6388462;27;20264;-68
2022/11/19 05:40:20;;;;;;;1.17;1.17;;;2.20;99.90;;;;;;6387839;27;20301;-68
2022/11/19 05:43:24;;;;;;;1.10;1.10;;;2.20;99.90;;;;;;6387811;27;20260;-68
2022/11/19 05:46:29;;;;;;;1.00;1.00;;;2.10;99.90;;;;;;6388271;27;20448;-68
2022/11/19 05:49:34;;;;;;;1.30;1.23;;;2.20;99.90;;;;;;6388448;27;20398;-68
2022/11/19 05:52:39;;;;;;;1.10;1.10;;;2.20;99.90;;;;;;6388573;27;20270;-68
2022/11/19 05:55:45;;;;;;;1.10;1.10;;;2.20;99.90;;;;;;6387740;27;20291;-68
2022/11/19 05:58:49;;;;;;;1.10;1.10;;;2.20;99.90;;;;;;6388070;27;20292;-68
2022/11/19 06:01:54;;;;;;;1.77;1.20;;;2.20;99.90;;;;;;6387639;27;20307;-68
2022/11/19 06:04:59;;;;;;;1.47;1.40;;;2.10;99.90;;;;;;6387546;27;20390;-68
2022/11/19 06:08:06;;;;;;;1.00;1.00;;;2.10;99.90;;;;;;6387657;27;20266;-68
2022/11/19 06:11:46;;;;;;;1.40;1.30;;;2.10;99.90;;;;;;6383477;27;20291;-68
2022/11/19 06:14:38;;;;;;;1.10;1.10;;;2.10;99.90;;;;;;6387276;27;20290;-68
2022/11/19 06:17:43;;;;;;;1.20;1.20;;;2.20;99.90;;;;;;6388034;27;20271;-68
2022/11/19 06:20:48;;;;;;;1.20;1.20;;;2.00;99.90;;;;;;6387370;27;20295;-68
2022/11/19 06:23:52;;;;;;;1.20;1.20;;;2.10;99.90;;;;;;6386475;27;20292;-68
2022/11/19 06:26:58;;;;;;;1.30;1.20;;;2.10;99.90;;;;;;6387243;27;20271;-67
2022/11/19 06:30:05;;;;;;;1.10;1.10;;;2.10;99.90;;;;;;6386593;27;20319;-68
2022/11/19 06:33:14;;;;;;;3.30;1.20;;;2.00;99.90;;;;;;6387050;27;20264;-68
2022/11/19 06:36:19;;;;;;;1.30;1.10;;;2.10;99.90;;;;;;6387515;27;20268;-68
2022/11/19 06:39:24;;;;;;;1.10;1.10;;;2.00;99.90;;;;;;6386884;27;20478;-67
2022/11/19 06:42:37;;;;;;;1.37;1.37;;;2.00;99.90;;;;;;6386777;27;20286;-67
2022/11/19 06:45:42;;;;;;;1.80;1.30;;;2.00;99.90;;;;;;6386450;27;20312;-68
2022/11/19 06:48:46;;;;;;;1.30;1.30;;;1.90;99.90;;;;;;6368392;27;20293;-68
2022/11/19 06:51:51;;;;;;;1.20;1.10;;;1.90;99.90;;;;;;6386778;27;20267;-68
2022/11/19 06:54:56;;;;;;;1.10;1.10;;;1.90;99.90;;;;;;6386325;27;20293;-68
2022/11/19 06:58:04;;;;;;;1.03;1.03;;;1.90;99.90;;;;;;6386923;27;20462;-68
2022/11/19 07:01:13;;;;;;;1.40;1.30;;;1.90;99.90;;;;;;6386073;27;20588;-68
2022/11/19 07:04:18;;;;;;;1.53;1.43;;;1.90;99.90;;;;;;6385811;27;20295;-68
2022/11/19 07:07:23;;;;;;;1.40;1.40;;;1.90;99.90;;;;;;6386315;27;20268;-67
2022/11/19 07:10:28;;;;;;;1.20;1.20;;;1.90;99.90;;;;;;6386032;27;20581;-67
2022/11/19 07:16:52;;;;;;;1.07;1.07;;;1.90;99.90;;;;;;6386227;27;20267;-67
2022/11/19 07:19:57;;;;;;;1.23;1.23;;;1.90;99.90;;;;;;6385711;27;20299;-67
2022/11/19 07:23:02;;;;;;;1.20;1.20;;;1.90;99.90;;;;;;6386634;27;20286;-67
2022/11/19 07:26:07;;;;;;;1.40;1.40;;;1.80;99.90;;;;;;6386118;28;20475;-67
2022/11/19 07:29:15;;;;;;;1.10;1.10;;;1.80;99.90;;;;;;6367942;28;20294;-68
2022/11/19 07:32:19;;;;;;;1.30;1.30;;;1.90;99.90;;;;;;6386620;28;20266;-68
2022/11/19 07:35:24;;;;;;;1.20;1.20;;;1.90;99.90;;;;;;6387702;27;20292;-68
2022/11/19 07:38:29;;;;;;;1.20;1.20;;;1.90;99.90;;;;;;6391184;27;20270;-68
2022/11/19 07:45:06;;;;;;;1.30;1.30;;;1.80;99.90;;;;;;6390861;27;20297;-67
2022/11/19 07:48:12;;;;;;;1.20;1.20;;;1.70;99.90;;;;;;6390558;27;20280;-67
2022/11/19 07:51:16;;;;;;;1.27;1.27;;;1.80;99.90;;;;;;6391025;27;20270;-67
2022/11/19 07:54:21;;;;;;;1.20;1.20;;;1.80;99.90;;;;;;6390241;27;20303;-68
2022/11/19 07:57:26;;;;;;;1.00;1.00;;;1.80;99.90;;;;;;6391332;27;20275;-68
2022/11/19 08:00:36;;;;;;;1.20;1.20;;;1.80;99.90;;;;;;6390651;27;20293;-67
2022/11/19 08:03:41;;;;;;;1.20;1.20;;;1.80;99.90;;;;;;6389826;27;20307;-67
2022/11/19 08:06:46;;;;;;;1.20;1.10;;;1.80;99.90;;;;;;6390783;27;20456;-67
2022/11/19 08:09:51;;;;;;;1.07;1.07;;;1.80;99.90;;;;;;6390121;27;20296;-67
2022/11/19 08:13:03;;;;;;;1.53;1.53;;;1.80;99.90;;;;;;6387466;27;20641;-67
2022/11/19 08:16:11;;;;;;;1.30;1.30;;;1.80;99.90;;;;;;6389831;27;20288;-67
2022/11/19 08:19:16;;;;;;;1.30;1.30;;;1.80;99.90;;;;;;6390095;27;20288;-67
2022/11/19 08:22:21;;;;;;;1.40;1.40;;;1.80;99.90;;;;;;6372006;27;20292;-68
2022/11/19 08:25:26;;;;;;;1.27;1.23;;;1.80;99.90;;;;;;6390341;27;20296;-68
2022/11/19 08:28:31;;;;;;;1.33;1.33;;;1.80;99.90;;;;;;6389962;27;20269;-68
2022/11/19 08:31:37;;;;;;;1.33;1.23;;;1.80;99.90;;;;;;6390529;27;20280;-68
2022/11/19 08:34:41;;;;;;;1.70;1.23;;;1.80;99.90;;;;;;6389440;27;20383;-68
2022/11/19 08:37:47;;;;;;;1.27;1.27;;;1.90;99.90;;;;;;6390700;27;20268;-68
2022/11/19 08:42:58;;;;;;;1.30;1.30;;;1.90;99.90;;;;;;6389840;27;20295;-68
2022/11/19 08:44:16;;;;;;;1.33;1.33;;;1.90;99.90;;;;;;6389324;27;20293;-68
2022/11/19 08:47:23;;;;;;;1.30;1.30;;;1.80;99.90;;;;;;6388653;27;20267;-68
2022/11/19 08:50:30;;;;;;;1.53;1.30;;;1.90;99.90;;;;;;6389638;27;20304;-67
2022/11/19 08:53:34;;;;;;;1.30;1.30;;;1.80;99.90;;;;;;6389275;27;20293;-67
2022/11/19 08:56:39;;;;;;;1.40;1.40;;;1.80;99.90;;;;;;6389489;27;20260;-68
2022/11/19 08:59:44;;;;;;;2.00;1.40;;;1.80;99.90;;;;;;6388428;27;20306;-70
2022/11/19 09:02:50;;;;;;;1.30;1.30;;;1.80;99.90;;;;;;6389081;27;20301;-69
2022/11/19 09:05:59;;;;;;;2.50;1.60;;;1.80;99.90;;;;;;6388879;27;20577;-70
2022/11/19 09:09:04;;;;;;;2.67;1.50;;;1.70;99.90;;;;;;6388761;27;20294;-69
2022/11/19 09:12:11;;;;;;;1.30;1.30;;;1.70;99.90;;;;;;6370878;27;20260;-69
2022/11/19 09:15:16;;;;;;;1.33;1.30;;;1.80;99.90;;;;;;6388746;27;20290;-70
2022/11/19 09:18:22;;;;;;;1.50;1.43;;;1.80;99.90;;;;;;6370534;27;20265;-68
2022/11/19 09:21:27;;;;;;;1.60;1.60;;;1.80;99.90;;;;;;6389401;27;20260;-69
2022/11/19 09:24:31;;;;;;;1.63;1.63;;;1.80;99.90;;;;;;6388082;27;20292;-68
2022/11/19 09:27:37;;;;;;;1.70;1.60;;;1.80;99.90;;;;;;6371214;27;20262;-68
2022/11/19 09:30:42;;;;;;;1.30;1.30;;;1.80;99.90;;;;;;6388728;27;20294;-69
2022/11/19 09:33:50;;;;;;;4.93;1.53;;;1.80;99.90;;;;;;6387714;27;20299;-67
2022/11/19 09:36:55;;;;;;;1.50;1.50;;;1.80;99.90;;;;;;6388789;27;20273;-68
2022/11/19 09:40:00;;;;;;;1.80;1.80;;;1.70;99.90;;;;;;6387526;27;20299;-67
2022/11/19 09:43:11;;;;;;;1.80;1.70;;;1.80;99.90;;;;;;6388657;27;20288;-67
2022/11/19 09:46:28;;;;;;;1.50;1.50;;;1.80;99.90;;;;;;6387697;27;20356;-66
2022/11/19 09:49:38;;;;;;;1.60;1.50;;;1.80;99.90;;;;;;6387836;27;20295;-66
2022/11/19 09:52:47;;;;;;;1.73;1.60;;;1.90;99.90;;;;;;6387910;27;20269;-68
2022/11/19 09:55:53;;;;;;;1.50;1.50;;;1.90;99.90;;;;;;6387812;27;20437;-69
2022/11/19 09:58:59;;;;;;;1.40;1.30;;;2.00;99.90;;;;;;6387670;27;20289;-68
2022/11/19 10:02:13;;;;;;;1.30;1.30;;;2.00;99.90;;;;;;6387572;27;20295;-68
2022/11/19 10:05:28;;;;;;;1.30;1.30;;;2.10;99.90;;;;;;6387278;27;20470;-69
2022/11/19 10:08:48;;;;;;;1.70;1.60;;;2.10;99.90;;;;;;6386954;27;20292;-69
2022/11/19 10:12:09;;;;;;;2.97;2.83;;;2.10;99.90;;;;;;6384954;27;20262;-68
2022/11/19 10:15:21;;;;;;;1.97;1.97;;;2.10;99.90;;;;;;6387531;27;20462;-68
2022/11/19 10:18:34;;;;;;;2.10;2.00;;;2.00;99.90;;;;;;6387586;27;20506;-68
2022/11/19 10:21:47;;;;;;;1.60;1.60;;;2.00;99.90;;;;;;6387175;27;20275;-68
2022/11/19 10:25:01;;;;;;;1.60;1.60;;;1.90;99.90;;;;;;6387142;27;20551;-69
2022/11/19 10:28:13;;;;;;;1.50;1.50;;;2.00;99.90;;;;;;6387082;27;20267;-69
2022/11/19 10:31:27;;;;;;;2.20;2.07;;;1.90;99.90;;;;;;6386063;27;20264;-68
2022/11/19 10:34:34;;;;;;;1.67;1.67;;;2.00;99.90;;;;;;6386643;27;20300;-68
2022/11/19 10:37:55;;;;;;;1.70;1.60;;;2.00;99.90;;;;;;6387067;27;20444;-68
2022/11/19 10:41:05;;;;;;;1.47;1.47;;;2.10;99.90;;;;;;6386854;27;20297;-68
2022/11/19 10:47:46;;;;;;;1.60;1.60;;;2.00;99.90;;;;;;6386733;27;20268;-67
2022/11/19 10:50:51;;;;;;;1.80;1.80;;;2.10;99.90;;;;;;6385192;27;20296;-67
2022/11/19 10:53:58;;;;;;;1.87;1.87;;;2.00;99.90;;;;;;6386311;27;20589;-68
2022/11/19 10:57:04;;;;;;;1.80;1.70;;;2.10;99.90;;;;;;6386643;27;20269;-67
2022/11/19 11:00:13;;;;;;;1.70;1.60;;;2.20;99.90;;;;;;6386337;27;20296;-67
2022/11/19 11:03:24;;;;;;;2.30;1.50;;;2.20;99.90;;;;;;6385564;27;20297;-68
2022/11/19 11:06:51;;;;;;;1.63;1.63;;;2.20;99.90;;;;;;6386886;27;20271;-68
2022/11/19 11:09:57;;;;;;;1.60;1.60;;;2.20;99.90;;;;;;6385295;27;20299;-67
2022/11/19 11:16:58;;;;;;;1.80;1.50;;;2.10;99.90;;;;;;6360108;28;20280;-68
2022/11/19 11:20:06;;;;;;;1.80;1.80;;;1.90;99.90;;;;;;6360191;28;20300;-67
2022/11/19 11:23:17;;;;;;;2.07;1.87;;;1.90;99.90;;;;;;6360707;28;20263;-66
2022/11/19 11:26:26;;;;;;;2.00;1.90;;;1.90;99.90;;;;;;6360855;28;20274;-67
2022/11/19 11:29:31;;;;;;;2.17;2.00;;;2.00;99.90;;;;;;6360349;28;20478;-68
2022/11/19 11:32:36;;;;;;;1.83;1.83;;;2.00;99.90;;;;;;6360659;28;20274;-69
2022/11/19 11:35:44;;;;;;;7.50;2.10;;;1.90;99.90;;;;;;6360276;28;20293;-69
2022/11/19 11:38:51;;;;;;;2.00;1.97;;;1.90;99.90;;;;;;6342154;28;20296;-70
2022/11/19 11:41:59;;;;;;;2.20;1.80;;;1.80;99.90;;;;;;6360533;28;20464;-68
2022/11/19 11:45:29;;;;;;;2.30;2.20;;;1.80;99.90;;;;;;6359760;28;20468;-68
2022/11/19 11:48:37;;;;;;;2.00;1.90;;;1.80;99.90;;;;;;6359789;28;20308;-69
2022/11/19 11:51:41;;;;;;;1.90;1.80;;;1.70;99.90;;;;;;6360778;28;20289;-69
2022/11/19 11:54:59;;;;;;;2.30;2.27;;;1.80;99.90;;;;;;6360246;28;20293;-68
2022/11/19 11:58:24;;;;;;;5.40;2.30;;;1.80;99.90;;;;;;6360790;28;20551;-69
2022/11/19 12:01:30;;;;;;;2.00;2.00;;;1.80;99.90;;;;;;6358385;28;20300;-67
2022/11/19 12:04:35;;;;;;;1.90;1.90;;;1.60;99.90;;;;;;6359935;28;20289;-67
2022/11/19 12:08:03;;;;;;;2.00;1.90;;;1.70;99.90;;;;;;6360731;28;20451;-67
2022/11/19 12:11:14;;;;;;;2.17;2.17;;;1.80;99.90;;;;;;6365076;28;20312;-67
2022/11/19 12:14:24;;;;;;;2.50;2.40;;;1.60;99.90;;;;;;6385656;28;20449;-67
2022/11/19 12:17:41;;;;;;;2.00;2.00;;;1.60;99.90;;;;;;6385929;28;20585;-68
2022/11/19 12:20:54;;;;;;;1.97;1.90;;;1.50;99.90;;;;;;6386199;27;20297;-69
2022/11/19 12:24:13;;;;;;;2.30;2.20;;;1.50;99.90;;;;;;6389852;27;20292;-68
2022/11/19 12:27:27;;;;;;;3.67;3.57;;;1.50;99.90;;;;;;6390353;27;20274;-69
2022/11/19 12:30:42;;;;;;;3.20;2.90;;;1.50;99.90;;;;;;6390102;27;20292;-70
2022/11/19 12:34:16;;;;;;;2.70;2.50;;;1.30;99.90;;;;;;6389522;27;20325;-69
2022/11/19 12:37:33;;;;;;;2.30;2.20;;;1.40;99.90;;;;;;6390093;27;20268;-67
2022/11/19 12:40:44;;;;;;;2.03;2.03;;;1.30;99.90;;;;;;6389789;27;20561;-67
2022/11/19 12:43:55;;;;;;;2.13;2.03;;;1.40;99.90;;;;;;6389407;27;20476;-68
2022/11/19 12:47:13;;;;;;;2.20;2.20;;;1.40;99.90;;;;;;6389912;27;20273;-68
2022/11/19 12:50:23;;;;;;;1.90;1.90;;;1.30;99.90;;;;;;6389603;27;20333;-71
2022/11/19 12:53:42;;;;;;;2.17;2.07;;;1.30;99.90;;;;;;6389321;27;20273;-67
2022/11/19 12:57:04;;;;;;;2.03;2.03;;;1.30;99.90;;;;;;6390083;27;20270;-69
2022/11/19 13:00:15;;;;;;;2.33;2.27;;;1.40;99.90;;;;;;6389384;27;20320;-68
2022/11/19 13:03:31;;;;;;;2.10;1.90;;;1.50;99.90;;;;;;6388662;27;20302;-69
2022/11/19 13:06:41;;;;;;;2.00;1.90;;;1.60;99.90;;;;;;6389115;27;20290;-67
2022/11/19 13:09:49;;;;;;;2.77;1.90;;;1.60;99.90;;;;;;6388792;27;20293;-67
2022/11/19 13:12:55;;;;;;;3.80;3.60;;;1.70;99.90;;;;;;6386502;27;20256;-66
2022/11/19 13:16:05;;;;;;;3.57;3.27;;;1.80;99.90;;;;;;6389096;27;20595;-66
2022/11/19 13:19:21;;;;;;;2.13;1.90;;;1.90;99.90;;;;;;6388578;27;20292;-67
2022/11/19 13:22:29;;;;;;;1.53;1.53;;;1.80;99.90;;;;;;6388752;27;20292;-66
2022/11/19 13:25:39;;;;;;;1.33;1.33;;;1.90;99.90;;;;;;6388675;27;20298;-67
2022/11/19 13:28:48;;;;;;;1.20;1.20;;;1.90;99.90;;;;;;6388561;27;20296;-67
2022/11/19 13:31:57;;;;;;;1.00;1.00;;;2.00;99.90;;;;;;6389109;27;20271;-68
2022/11/19 13:35:13;;;;;;;1.00;1.00;;;2.00;99.90;;;;;;6388161;27;20292;-68
2022/11/19 13:38:23;;;;;;;0.97;0.90;;;2.00;99.90;;;;;;6388505;27;20268;-68
2022/11/19 13:41:32;;;;;;;0.90;0.90;;;2.10;99.90;;;;;;6388535;27;20574;-68
2022/11/19 13:44:40;;;;;;;1.10;1.10;;;2.10;99.90;;;;;;6388147;27;20304;-66
2022/11/19 13:47:49;;;;;;;1.20;1.20;;;2.00;99.90;;;;;;6388777;27;20263;-65
2022/11/19 13:51:04;;;;;;;1.40;1.30;;;2.00;99.90;;;;;;6388165;27;20296;-67
2022/11/19 13:54:24;;;;;;;1.97;1.17;;;2.00;99.90;;;;;;6387687;27;20296;-67
2022/11/19 13:57:32;;;;;;;1.17;1.17;;;2.10;99.90;;;;;;6370530;27;20299;-67
2022/11/19 14:00:37;;;;;;;2.13;2.10;;;2.10;99.90;;;;;;6387835;27;20295;-67
2022/11/19 14:04:22;;;;;;;2.50;2.40;;;2.10;99.90;;;;;;6387757;27;20296;-68
2022/11/19 14:07:58;;;;;;;2.07;2.07;;;2.20;99.90;;;;;;6386065;27;20295;-67
2022/11/19 14:11:17;;;;;;;1.70;1.60;;;2.20;99.90;;;;;;6387659;27;20369;-67
2022/11/19 14:28:48;;;;;;;2.50;2.30;;;2.30;99.90;;;;;;6387028;27;20296;-68
2022/11/19 14:32:19;;;;;;;2.17;2.07;;;2.30;99.90;;;;;;6387239;27;20264;-67
2022/11/19 14:35:35;;;;;;;1.83;1.83;;;2.40;99.90;;;;;;6386873;27;20296;-67
2022/11/19 14:38:44;;;;;;;2.30;2.20;;;2.40;99.90;;;;;;6387112;27;20579;-67
2022/11/19 14:42:14;;;;;;;2.37;2.27;;;2.40;99.90;;;;;;6368583;27;20579;-67
2022/11/19 14:45:20;;;;;;;2.20;2.20;;;2.40;99.90;;;;;;6386683;27;20295;-67
2022/11/19 14:48:25;;;;;;;1.83;1.83;;;2.40;99.90;;;;;;6368217;27;20447;-66
2022/11/19 14:51:34;;;;;;;4.53;2.30;;;2.40;99.90;;;;;;6386883;27;20282;-66
2022/11/19 14:54:43;;;;;;;2.00;2.00;;;2.40;99.90;;;;;;6386037;27;20295;-66
2022/11/19 14:57:58;;;;;;;2.60;2.37;;;2.40;99.90;;;;;;6386691;27;20272;-66
2022/11/19 15:01:07;;;;;;;2.13;2.13;;;2.50;99.90;;;;;;6386355;27;20683;-67
2022/11/19 15:04:13;;;;;;;2.20;2.20;;;2.50;99.90;;;;;;6385953;27;20292;-66
2022/11/19 15:07:38;;;;;;;2.20;2.10;;;2.40;99.90;;;;;;6386421;27;20364;-66
2022/11/19 15:10:48;;;;;;;2.40;2.30;;;2.30;99.90;;;;;;6383082;27;20292;-67
2022/11/19 15:15:03;;;;;;;2.30;2.30;;;2.30;99.90;;;;;;6385800;27;20306;-67
2022/11/19 15:18:39;;;;;;;2.37;2.37;;;2.30;99.90;;;;;;6386436;27;20270;-66
2022/11/19 15:22:36;;;;;;;2.20;2.10;;;2.20;99.90;;;;;;6385779;27;20454;-67
2022/11/19 15:25:52;;;;;;;2.30;2.30;;;2.20;99.90;;;;;;6385984;27;20476;-67
2022/11/19 15:29:09;;;;;;;3.60;2.33;;;2.30;99.90;;;;;;6385481;27;20482;-67
2022/11/19 15:32:24;;;;;;;2.80;2.70;;;2.30;99.90;;;;;;6386037;28;20431;-66
2022/11/19 15:36:20;;;;;;;2.40;2.30;;;2.30;99.90;;;;;;6385533;27;20305;-67
2022/11/19 15:39:29;;;;;;;4.00;2.30;;;2.30;99.90;;;;;;6385577;27;20287;-67
2022/11/19 15:42:42;;;;;;;2.70;2.60;;;2.30;99.90;;;;;;6386151;28;20270;-67
2022/11/19 15:45:53;;;;;;;2.93;2.57;;;2.30;99.90;;;;;;6385984;27;20480;-67
2022/11/19 15:49:06;;;;;;;4.13;2.50;;;2.30;99.90;;;;;;6385661;27;20296;-68
2022/11/19 15:52:20;;;;;;;2.40;2.40;;;2.30;99.90;;;;;;6386135;28;20277;-67
2022/11/19 15:55:27;;;;;;;3.00;2.60;;;2.20;99.90;;;;;;6385898;27;20288;-67
2022/11/19 15:58:36;;;;;;;2.87;2.77;;;2.30;99.90;;;;;;6390892;27;20572;-68
2022/11/19 16:01:42;;;;;;;2.37;2.37;;;2.30;99.90;;;;;;6391412;27;20272;-67
2022/11/19 16:04:50;;;;;;;2.37;2.37;;;2.10;99.90;;;;;;6389923;27;20288;-67
2022/11/19 16:07:55;;;;;;;2.60;2.60;;;2.20;99.90;;;;;;6390919;27;20291;-67
2022/11/19 16:17:48;;;;;;;2.63;2.53;;;2.20;99.90;;;;;;6390591;27;20266;-68
2022/11/19 16:20:54;;;;;;;3.37;3.00;;;2.20;99.90;;;;;;6389769;27;20598;-67
2022/11/19 16:27:24;;;;;;;3.97;3.87;;;2.20;99.90;;;;;;6372062;27;20576;-67
2022/11/19 16:30:33;;;;;;;4.00;3.80;;;2.20;99.90;;;;;;6371818;27;20589;-66
2022/11/19 16:33:40;;;;;;;4.30;4.00;;;2.20;99.90;;;;;;6390114;27;20292;-67
2022/11/19 16:36:48;;;;;;;3.13;2.90;;;2.20;99.90;;;;;;6390385;27;20271;-67
2022/11/19 16:39:54;;;;;;;2.87;2.77;;;2.20;99.90;;;;;;6389452;27;20314;-68
2022/11/19 16:43:00;;;;;;;2.70;2.70;;;2.20;99.90;;;;;;6390301;27;20265;-67
2022/11/19 16:46:06;;;;;;;3.00;2.90;;;2.20;99.90;;;;;;6389656;27;20299;-67
2022/11/19 16:49:28;;;;;;;3.20;3.10;;;2.20;99.90;;;;;;6389065;27;20292;-67
2022/11/19 16:52:40;;;;;;;2.83;2.73;;;2.30;99.90;;;;;;6387808;27;20273;-68
2022/11/19 16:55:52;;;;;;;2.80;2.60;;;2.20;99.90;;;;;;6389617;27;20290;-67
2022/11/19 16:58:59;;;;;;;2.40;2.40;;;2.20;99.90;;;;;;6389381;27;20308;-67
2022/11/19 17:02:04;;;;;;;3.10;2.90;;;2.20;99.90;;;;;;6389703;27;20264;-67
2022/11/19 17:05:13;;;;;;;3.00;2.90;;;2.20;99.90;;;;;;6388148;27;20290;-66
2022/11/19 17:08:25;;;;;;;2.70;2.60;;;2.20;99.90;;;;;;6387809;27;20287;-68
2022/11/19 17:15:33;;;;;;;2.70;2.60;;;2.20;99.90;;;;;;6388809;27;20288;-67
2022/11/19 17:18:42;;;;;;;2.80;2.70;;;2.20;99.90;;;;;;6388655;27;20300;-68
2022/11/19 17:21:51;;;;;;;2.60;2.50;;;2.20;99.90;;;;;;6389632;27;20271;-68
2022/11/19 17:24:58;;;;;;;2.40;2.40;;;2.20;99.90;;;;;;6388245;27;20292;-67
2022/11/19 17:28:03;;;;;;;2.90;2.60;;;2.20;99.90;;;;;;6389072;27;20284;-67
2022/11/19 17:31:16;;;;;;;3.00;2.80;;;2.10;99.90;;;;;;6388235;27;20297;-67
2022/11/19 17:34:30;;;;;;;2.70;2.60;;;2.20;99.90;;;;;;6388541;27;20288;-67
2022/11/19 17:37:35;;;;;;;2.40;2.40;;;2.20;99.90;;;;;;6388823;27;20272;-66